createdAt,value
2018-09-13T00:02:14.178Z,61.01
2018-09-13T00:04:41.080Z,61.00
2018-09-13T00:07:08.078Z,60.76
2018-09-13T00:09:35.102Z,61.56
2018-09-13T00:12:02.120Z,61.70
2018-09-13T00:14:29.024Z,61.13
2018-09-13T00:16:56.101Z,61.27
2018-09-13T00:19:23.109Z,61.83
2018-09-13T00:21:50.128Z,60.96
2018-09-13T00:24:17.075Z,61.10
2018-09-13T00:26:44.105Z,60.90
2018-09-13T00:29:11.076Z,60.96
2018-09-13T00:31:38.059Z,60.96
2018-09-13T00:34:04.981Z,61.76
2018-09-13T00:36:31.988Z,60.87
2018-09-13T00:38:58.888Z,61.65
2018-09-13T00:41:25.820Z,60.88
2018-09-13T00:43:52.809Z,61.10
2018-09-13T00:46:19.756Z,61.69
2018-09-13T00:48:46.763Z,61.69
2018-09-13T00:51:13.832Z,60.91
2018-09-13T00:53:40.820Z,61.21
2018-09-13T00:56:07.763Z,61.60
2018-09-13T00:58:34.740Z,60.90
2018-09-13T01:01:01.749Z,61.63
2018-09-13T01:03:28.673Z,61.75
2018-09-13T01:05:55.624Z,61.45
2018-09-13T01:08:22.605Z,60.98
2018-09-13T01:10:49.586Z,60.87
2018-09-13T01:13:16.537Z,61.20
2018-09-13T01:15:43.536Z,61.17
2018-09-13T01:18:10.533Z,61.37
2018-09-13T01:20:37.518Z,61.46
2018-09-13T01:23:04.538Z,61.81
2018-09-13T01:25:31.478Z,61.33
2018-09-13T01:27:58.426Z,60.96
2018-09-13T01:30:25.481Z,61.72
2018-09-13T01:32:52.423Z,61.34
2018-09-13T01:35:19.493Z,61.70
2018-09-13T01:37:46.447Z,61.02
2018-09-13T01:40:13.377Z,61.49
2018-09-13T01:42:40.341Z,61.85
2018-09-13T01:45:07.337Z,61.62
2018-09-13T01:47:34.341Z,61.49
2018-09-13T01:50:01.371Z,61.13
2018-09-13T01:52:28.301Z,61.19
2018-09-13T01:54:55.264Z,61.07
2018-09-13T01:57:22.182Z,61.29
2018-09-13T01:59:49.175Z,61.04
2018-09-13T02:02:16.182Z,61.19
2018-09-13T02:04:43.170Z,61.72
2018-09-13T02:07:10.137Z,61.75
2018-09-13T02:09:37.093Z,61.66
2018-09-13T02:12:04.133Z,61.29
2018-09-13T02:14:31.063Z,61.63
2018-09-13T02:16:58.084Z,61.77
2018-09-13T02:19:25.099Z,61.96
2018-09-13T02:21:52.071Z,61.82
2018-09-13T02:24:19.081Z,61.86
2018-09-13T02:26:46.028Z,61.84
2018-09-13T02:29:12.968Z,61.34
2018-09-13T02:31:39.925Z,61.19
2018-09-13T02:34:06.886Z,61.20
2018-09-13T02:36:33.856Z,61.10
2018-09-13T02:39:00.822Z,61.71
2018-09-13T02:41:27.780Z,61.87
2018-09-13T02:43:54.777Z,61.29
2018-09-13T02:46:21.745Z,61.78
2018-09-13T02:48:48.695Z,61.49
2018-09-13T02:51:15.681Z,61.98
2018-09-13T02:53:42.680Z,61.15
2018-09-13T02:56:09.664Z,61.85
2018-09-13T02:58:36.712Z,61.92
2018-09-13T03:01:03.671Z,61.83
2018-09-13T03:03:30.658Z,62.01
2018-09-13T03:05:57.663Z,61.30
2018-09-13T03:08:24.736Z,62.12
2018-09-13T03:10:51.741Z,61.83
2018-09-13T03:13:18.750Z,61.23
2018-09-13T03:15:45.701Z,61.26
2018-09-13T03:18:12.754Z,62.13
2018-09-13T03:20:39.765Z,61.83
2018-09-13T03:23:06.693Z,62.21
2018-09-13T03:25:33.584Z,61.73
2018-09-13T03:28:00.536Z,61.54
2018-09-13T03:30:27.487Z,61.60
2018-09-13T03:32:54.421Z,61.99
2018-09-13T03:35:21.344Z,61.42
2018-09-13T03:37:48.241Z,61.44
2018-09-13T03:40:15.161Z,62.06
2018-09-13T03:42:42.090Z,61.74
2018-09-13T03:45:09.018Z,61.83
2018-09-13T03:47:35.901Z,62.50
2018-09-13T03:50:02.790Z,62.44
2018-09-13T03:52:29.672Z,63.03
2018-09-13T03:54:56.560Z,62.74
2018-09-13T03:57:23.457Z,63.06
2018-09-13T03:59:50.349Z,62.58
2018-09-13T04:02:17.282Z,62.64
2018-09-13T04:04:44.182Z,62.55
2018-09-13T04:07:11.086Z,61.98
2018-09-13T04:09:38.089Z,62.55
2018-09-13T04:12:05.002Z,62.46
2018-09-13T04:14:31.981Z,61.96
2018-09-13T04:16:58.931Z,62.50
2018-09-13T04:19:30.279Z,62.14
2018-09-13T04:21:57.189Z,63.10
2018-09-13T04:24:24.103Z,63.03
2018-09-13T04:26:51.002Z,63.16
2018-09-13T04:29:17.954Z,63.11
2018-09-13T04:31:44.928Z,63.17
2018-09-13T04:34:11.874Z,62.77
2018-09-13T04:36:38.880Z,62.19
2018-09-13T04:39:05.855Z,62.77
2018-09-13T04:41:32.763Z,62.89
2018-09-13T04:43:59.692Z,62.83
2018-09-13T04:46:26.649Z,62.50
2018-09-13T04:48:53.657Z,63.02
2018-09-13T04:51:20.667Z,62.27
2018-09-13T04:53:47.577Z,62.49
2018-09-13T04:56:14.556Z,62.87
2018-09-13T04:58:41.572Z,62.57
2018-09-13T05:01:08.523Z,62.65
2018-09-13T05:03:35.602Z,62.65
2018-09-13T05:06:02.509Z,62.42
2018-09-13T05:08:29.460Z,62.45
2018-09-13T05:10:56.435Z,62.41
2018-09-13T05:13:23.392Z,62.47
2018-09-13T05:15:50.817Z,62.40
2018-09-13T05:18:17.791Z,62.66
2018-09-13T05:20:44.754Z,62.36
2018-09-13T05:23:11.719Z,62.38
2018-09-13T05:25:38.786Z,62.54
2018-09-13T05:28:05.798Z,62.64
2018-09-13T05:30:32.758Z,62.37
2018-09-13T05:32:59.726Z,62.44
2018-09-13T05:35:26.655Z,62.19
2018-09-13T05:37:53.594Z,62.31
2018-09-13T05:40:20.620Z,62.15
2018-09-13T05:42:47.774Z,62.00
2018-09-13T05:45:15.126Z,62.69
2018-09-13T05:47:42.088Z,62.73
2018-09-13T05:50:09.025Z,61.81
2018-09-13T05:52:35.949Z,62.60
2018-09-13T05:55:02.881Z,62.50
2018-09-13T05:57:29.820Z,61.96
2018-09-13T05:59:56.768Z,61.91
2018-09-13T06:02:23.676Z,61.84
2018-09-13T06:04:50.593Z,62.42
2018-09-13T06:07:17.522Z,62.56
2018-09-13T06:09:44.466Z,61.91
2018-09-13T06:12:11.393Z,62.02
2018-09-13T06:14:38.312Z,61.92
2018-09-13T06:17:05.258Z,62.09
2018-09-13T06:19:32.218Z,62.01
2018-09-13T06:21:59.140Z,62.47
2018-09-13T06:24:26.098Z,62.06
2018-09-13T06:26:53.127Z,62.21
2018-09-13T06:29:20.085Z,62.04
2018-09-13T06:31:46.997Z,62.78
2018-09-13T06:34:13.918Z,61.83
2018-09-13T06:36:40.849Z,62.72
2018-09-13T06:39:08.359Z,61.84
2018-09-13T06:41:35.394Z,62.20
2018-09-13T06:44:02.337Z,62.17
2018-09-13T06:46:29.259Z,61.97
2018-09-13T06:48:56.250Z,62.16
2018-09-13T06:51:23.207Z,61.95
2018-09-13T06:53:50.162Z,62.03
2018-09-13T06:56:17.299Z,62.64
2018-09-13T06:58:44.432Z,62.33
2018-09-13T07:01:11.521Z,62.65
2018-09-13T07:03:38.627Z,62.13
2018-09-13T07:06:05.696Z,62.54
2018-09-13T07:08:32.745Z,61.89
2018-09-13T07:10:59.741Z,62.81
2018-09-13T07:13:26.828Z,62.00
2018-09-13T07:15:53.892Z,62.74
2018-09-13T07:18:20.921Z,62.70
2018-09-13T07:20:48.025Z,62.20
2018-09-13T07:23:14.976Z,62.69
2018-09-13T07:25:41.973Z,62.45
2018-09-13T07:28:08.975Z,62.78
2018-09-13T07:30:36.013Z,62.55
2018-09-13T07:33:03.045Z,62.04
2018-09-13T07:35:30.011Z,62.34
2018-09-13T07:37:56.989Z,62.39
2018-09-13T07:40:23.961Z,62.70
2018-09-13T07:42:51.396Z,62.84
2018-09-13T07:45:18.333Z,62.56
2018-09-13T07:47:45.259Z,62.16
2018-09-13T07:50:12.214Z,62.80
2018-09-13T07:52:39.152Z,62.20
2018-09-13T07:55:06.106Z,62.90
2018-09-13T07:57:33.076Z,62.47
2018-09-13T07:59:59.969Z,62.13
2018-09-13T08:02:26.860Z,61.99
2018-09-13T08:04:53.817Z,61.95
2018-09-13T08:07:20.772Z,61.72
2018-09-13T08:09:47.717Z,61.25
2018-09-13T08:12:14.776Z,61.52
2018-09-13T08:14:41.699Z,61.83
2018-09-13T08:17:08.618Z,61.82
2018-09-13T08:19:35.658Z,61.74
2018-09-13T08:22:02.650Z,61.12
2018-09-13T08:24:29.544Z,61.90
2018-09-13T08:26:56.575Z,61.78
2018-09-13T08:29:23.448Z,62.05
2018-09-13T08:31:50.453Z,61.96
2018-09-13T08:34:17.375Z,61.42
2018-09-13T08:36:44.367Z,62.07
2018-09-13T08:39:12.200Z,62.16
2018-09-13T08:41:39.133Z,61.66
2018-09-13T08:44:06.069Z,62.29
2018-09-13T08:46:32.984Z,61.96
2018-09-13T08:48:59.985Z,61.79
2018-09-13T08:51:26.899Z,62.11
2018-09-13T08:53:53.832Z,62.24
2018-09-13T08:56:20.756Z,61.58
2018-09-13T08:58:47.657Z,61.96
2018-09-13T09:01:14.638Z,61.68
2018-09-13T09:03:41.612Z,61.58
2018-09-13T09:06:08.569Z,62.35
2018-09-13T09:08:35.513Z,62.02
2018-09-13T09:11:02.496Z,61.33
2018-09-13T09:13:29.497Z,61.68
2018-09-13T09:15:56.422Z,61.51
2018-09-13T09:18:23.494Z,61.88
2018-09-13T09:20:50.413Z,61.96
2018-09-13T09:23:17.353Z,61.88
2018-09-13T09:25:44.273Z,62.02
2018-09-13T09:28:11.166Z,62.06
2018-09-13T09:30:38.058Z,61.40
2018-09-13T09:33:04.963Z,62.05
2018-09-13T09:35:31.932Z,61.91
2018-09-13T09:37:58.823Z,62.47
2018-09-13T09:40:25.768Z,61.73
2018-09-13T09:42:52.637Z,61.83
2018-09-13T09:45:19.542Z,62.28
2018-09-13T09:47:46.481Z,62.58
2018-09-13T09:50:13.432Z,62.67
2018-09-13T09:52:40.305Z,62.05
2018-09-13T09:55:07.205Z,62.00
2018-09-13T09:57:34.114Z,62.67
2018-09-13T10:00:01.020Z,62.58
2018-09-13T10:02:27.916Z,62.41
2018-09-13T10:04:54.824Z,62.48
2018-09-13T10:07:21.773Z,62.24
2018-09-13T10:09:49.093Z,62.22
2018-09-13T10:12:16.372Z,62.85
2018-09-13T10:14:47.481Z,62.69
2018-09-13T10:17:19.832Z,62.93
2018-09-13T10:19:52.060Z,62.17
2018-09-13T10:22:24.371Z,62.68
2018-09-13T10:24:56.605Z,62.65
2018-09-13T10:28:32.749Z,62.74
2018-09-13T10:31:04.942Z,62.34
2018-09-13T10:33:37.100Z,62.06
2018-09-13T10:36:09.493Z,62.93
2018-09-13T10:38:41.614Z,62.91
2018-09-13T10:42:15.557Z,61.95
2018-09-13T10:44:47.804Z,62.92
2018-09-13T10:47:20.025Z,62.64
2018-09-13T10:49:52.239Z,62.05
2018-09-13T10:52:24.663Z,62.64
2018-09-13T10:54:51.452Z,62.05
2018-09-13T10:57:23.640Z,62.29
2018-09-13T10:59:50.529Z,62.34
2018-09-13T11:02:17.415Z,62.99
2018-09-13T11:04:45.555Z,62.85
2018-09-13T11:07:12.704Z,62.31
2018-09-13T11:09:39.865Z,62.63
2018-09-13T11:12:07.518Z,62.20
2018-09-13T11:14:42.844Z,62.80
2018-09-13T11:17:09.775Z,62.63
2018-09-13T11:19:36.764Z,62.94
2018-09-13T11:22:03.660Z,62.51
2018-09-13T11:24:30.650Z,62.15
2018-09-13T11:26:57.507Z,62.29
2018-09-13T11:29:24.392Z,62.47
2018-09-13T11:31:51.287Z,62.82
2018-09-13T11:34:18.215Z,62.80
2018-09-13T11:36:45.104Z,61.97
2018-09-13T11:39:12.877Z,62.62
2018-09-13T11:41:39.804Z,62.33
2018-09-13T11:44:06.693Z,62.65
2018-09-13T11:46:33.577Z,62.99
2018-09-13T11:49:00.514Z,62.82
2018-09-13T11:51:27.404Z,62.35
2018-09-13T11:53:54.306Z,62.32
2018-09-13T11:56:21.220Z,62.20
2018-09-13T11:58:48.149Z,62.87
2018-09-13T12:01:15.084Z,62.74
2018-09-13T12:03:42.152Z,62.20
2018-09-13T12:06:09.045Z,62.07
2018-09-13T12:08:35.933Z,61.99
2018-09-13T12:11:02.834Z,62.94
2018-09-13T12:13:29.793Z,62.79
2018-09-13T12:15:56.726Z,62.35
2018-09-13T12:18:23.675Z,62.82
2018-09-13T12:20:50.580Z,62.28
2018-09-13T12:23:17.480Z,61.96
2018-09-13T12:25:44.375Z,62.64
2018-09-13T12:28:11.268Z,62.19
2018-09-13T12:30:38.169Z,62.81
2018-09-13T12:33:05.094Z,62.10
2018-09-13T12:35:32.018Z,62.83
2018-09-13T12:37:58.922Z,62.23
2018-09-13T12:40:25.804Z,62.05
2018-09-13T12:42:52.731Z,63.00
2018-09-13T12:45:19.629Z,62.99
2018-09-13T12:47:46.525Z,62.04
2018-09-13T12:50:13.445Z,62.74
2018-09-13T12:52:40.381Z,62.84
2018-09-13T12:55:07.259Z,62.21
2018-09-13T12:57:34.154Z,62.99
2018-09-13T13:00:01.061Z,62.50
2018-09-13T13:02:27.987Z,62.38
2018-09-13T13:04:54.890Z,62.92
2018-09-13T13:07:21.808Z,62.40
2018-09-13T13:09:48.699Z,62.29
2018-09-13T13:12:15.608Z,62.64
2018-09-13T13:14:42.497Z,62.73
2018-09-13T13:17:09.397Z,62.42
2018-09-13T13:19:36.671Z,63.21
2018-09-13T13:22:03.681Z,62.77
2018-09-13T13:24:30.682Z,62.91
2018-09-13T13:26:57.677Z,62.66
2018-09-13T13:29:24.695Z,63.21
2018-09-13T13:31:51.709Z,62.35
2018-09-13T13:34:19.269Z,63.03
2018-09-13T13:36:46.157Z,62.18
2018-09-13T13:39:13.058Z,62.96
2018-09-13T13:41:39.953Z,62.70
2018-09-13T13:44:07.030Z,62.40
2018-09-13T13:46:33.989Z,63.06
2018-09-13T13:49:01.021Z,63.39
2018-09-13T13:51:28.105Z,63.08
2018-09-13T13:53:55.074Z,62.82
2018-09-13T13:56:22.011Z,62.95
2018-09-13T13:58:48.985Z,63.16
2018-09-13T14:01:16.665Z,62.57
2018-09-13T14:03:43.652Z,62.91
2018-09-13T14:06:10.553Z,62.82
2018-09-13T14:08:37.497Z,62.43
2018-09-13T14:11:04.502Z,63.12
2018-09-13T14:13:31.485Z,63.19
2018-09-13T14:15:58.497Z,62.38
2018-09-13T14:18:25.482Z,62.63
2018-09-13T14:20:52.550Z,62.33
2018-09-13T14:23:19.361Z,62.97
2018-09-13T14:25:46.392Z,62.31
2018-09-13T14:28:13.606Z,62.20
2018-09-13T14:30:40.589Z,63.35
2018-09-13T14:33:07.565Z,63.02
2018-09-13T14:35:34.600Z,63.39
2018-09-13T14:38:01.562Z,62.33
2018-09-13T14:40:28.506Z,63.30
2018-09-13T14:42:55.497Z,63.45
2018-09-13T14:45:22.458Z,62.81
2018-09-13T14:47:49.440Z,62.61
2018-09-13T14:50:16.402Z,63.55
2018-09-13T14:52:43.349Z,62.59
2018-09-13T14:55:10.367Z,62.65
2018-09-13T14:57:37.346Z,62.54
2018-09-13T15:00:04.338Z,62.80
2018-09-13T15:02:31.313Z,62.95
2018-09-13T15:04:58.326Z,63.23
2018-09-13T15:07:25.342Z,63.28
2018-09-13T15:09:52.278Z,63.20
2018-09-13T15:12:19.905Z,62.77
2018-09-13T15:14:46.862Z,62.70
2018-09-13T15:17:13.837Z,63.12
2018-09-13T15:19:40.813Z,63.36
2018-09-13T15:22:07.777Z,62.94
2018-09-13T15:24:34.761Z,63.42
2018-09-13T15:27:01.681Z,62.96
2018-09-13T15:29:28.899Z,63.36
2018-09-13T15:31:55.795Z,62.87
2018-09-13T15:34:22.762Z,63.06
2018-09-13T15:36:49.703Z,62.72
2018-09-13T15:39:16.652Z,62.69
2018-09-13T15:41:43.573Z,63.01
2018-09-13T15:44:10.606Z,63.20
2018-09-13T15:46:37.573Z,63.23
2018-09-13T15:49:04.824Z,63.18
2018-09-13T15:51:31.758Z,63.24
2018-09-13T15:53:58.953Z,63.76
2018-09-13T15:56:25.983Z,64.46
2018-09-13T15:58:53.006Z,64.75
2018-09-13T16:01:19.970Z,64.71
2018-09-13T16:03:46.949Z,64.61
2018-09-13T16:06:13.898Z,65.00
2018-09-13T16:08:40.852Z,65.28
2018-09-13T16:11:07.869Z,65.33
2018-09-13T16:13:34.900Z,65.16
2018-09-13T16:16:01.836Z,65.40
2018-09-13T16:18:28.808Z,65.47
2018-09-13T16:20:55.795Z,64.84
2018-09-13T16:23:22.799Z,66.28
2018-09-13T16:25:49.783Z,67.70
2018-09-13T16:28:16.818Z,66.73
2018-09-13T16:30:43.695Z,66.73
2018-09-13T16:33:10.689Z,66.02
2018-09-13T16:35:37.632Z,66.69
2018-09-13T16:38:09.943Z,67.66
2018-09-13T16:40:42.348Z,68.65
2018-09-13T16:43:14.559Z,68.00
2018-09-13T16:45:41.537Z,67.89
2018-09-13T16:48:08.569Z,68.45
2018-09-13T16:50:35.555Z,68.89
2018-09-13T16:53:02.653Z,67.43
2018-09-13T16:55:29.681Z,67.45
2018-09-13T16:57:56.695Z,69.47
2018-09-13T17:00:25.348Z,67.83
2018-09-13T17:02:52.411Z,68.22
2018-09-13T17:05:19.362Z,68.97
2018-09-13T17:07:46.382Z,68.81
2018-09-13T17:10:13.423Z,71.89
2018-09-13T17:12:40.388Z,72.39
2018-09-13T17:15:07.425Z,73.01
2018-09-13T17:17:34.377Z,71.78
2018-09-13T17:20:01.341Z,70.46
2018-09-13T17:22:28.385Z,69.81
2018-09-13T17:24:55.488Z,69.65
2018-09-13T17:27:22.445Z,69.07
2018-09-13T17:29:49.471Z,69.02
2018-09-13T17:32:16.441Z,68.27
2018-09-13T17:34:43.407Z,67.66
2018-09-13T17:37:10.358Z,67.62
2018-09-13T17:39:37.309Z,68.00
2018-09-13T17:42:04.291Z,67.73
2018-09-13T17:44:31.395Z,67.59
2018-09-13T17:46:58.321Z,67.38
2018-09-13T17:49:25.230Z,67.59
2018-09-13T17:51:52.128Z,67.83
2018-09-13T17:54:19.018Z,67.08
2018-09-13T17:56:45.925Z,66.73
2018-09-13T17:59:12.846Z,67.00
2018-09-13T18:01:39.856Z,67.21
2018-09-13T18:04:06.773Z,67.01
2018-09-13T18:06:33.669Z,67.44
2018-09-13T18:09:00.590Z,66.81
2018-09-13T18:11:27.497Z,67.20
2018-09-13T18:13:54.394Z,67.20
2018-09-13T18:16:21.282Z,67.42
2018-09-13T18:18:48.180Z,67.84
2018-09-13T18:21:15.072Z,68.03
2018-09-13T18:23:42.247Z,66.80
2018-09-13T18:26:09.074Z,66.88
2018-09-13T18:28:35.978Z,66.71
2018-09-13T18:31:03.213Z,66.13
2018-09-13T18:33:30.365Z,65.81
2018-09-13T18:35:57.349Z,66.41
2018-09-13T18:38:24.241Z,65.90
2018-09-13T18:40:51.166Z,66.08
2018-09-13T18:43:18.193Z,66.34
2018-09-13T18:45:45.179Z,66.23
2018-09-13T18:48:12.238Z,66.24
2018-09-13T18:50:39.472Z,66.23
2018-09-13T18:53:06.855Z,65.95
2018-09-13T18:55:34.080Z,66.66
2018-09-13T18:58:01.063Z,66.59
2018-09-13T19:00:28.057Z,65.93
2018-09-13T19:02:55.058Z,66.58
2018-09-13T19:05:21.998Z,66.37
2018-09-13T19:07:48.954Z,65.90
2018-09-13T19:10:15.917Z,65.86
2018-09-13T19:12:42.861Z,66.35
2018-09-13T19:15:09.781Z,66.60
2018-09-13T19:17:36.714Z,65.92
2018-09-13T19:20:03.651Z,66.22
2018-09-13T19:22:30.568Z,66.51
2018-09-13T19:24:57.561Z,65.73
2018-09-13T19:27:24.498Z,66.33
2018-09-13T19:29:51.398Z,66.31
2018-09-13T19:32:18.352Z,66.47
2018-09-13T19:34:45.308Z,66.35
2018-09-13T19:37:12.246Z,65.50
2018-09-13T19:39:39.185Z,66.22
2018-09-13T19:42:06.247Z,65.81
2018-09-13T19:44:33.232Z,65.60
2018-09-13T19:47:00.170Z,65.65
2018-09-13T19:49:27.143Z,66.45
2018-09-13T19:51:54.087Z,65.80
2018-09-13T19:54:21.063Z,65.57
2018-09-13T19:56:48.000Z,66.32
2018-09-13T19:59:15.012Z,65.93
2018-09-13T20:01:41.957Z,65.50
2018-09-13T20:04:08.881Z,65.93
2018-09-13T20:06:35.830Z,66.23
2018-09-13T20:09:02.835Z,65.57
2018-09-13T20:11:29.773Z,66.04
2018-09-13T20:13:56.839Z,65.42
2018-09-13T20:16:23.745Z,65.53
2018-09-13T20:18:50.684Z,65.84
2018-09-13T20:21:17.623Z,66.18
2018-09-13T20:23:44.610Z,66.34
2018-09-13T20:26:11.571Z,66.18
2018-09-13T20:28:38.616Z,65.88
2018-09-13T20:31:05.571Z,65.73
2018-09-13T20:33:32.531Z,65.66
2018-09-13T20:35:59.503Z,66.18
2018-09-13T20:38:26.472Z,65.39
2018-09-13T20:40:53.398Z,65.62
2018-09-13T20:43:20.321Z,65.59
2018-09-13T20:45:47.327Z,65.77
2018-09-13T20:48:14.261Z,65.95
2018-09-13T20:50:41.191Z,66.14
2018-09-13T20:53:08.162Z,66.04
2018-09-13T20:55:35.157Z,65.55
2018-09-13T20:58:02.126Z,65.69
2018-09-13T21:00:29.077Z,65.27
2018-09-13T21:02:56.041Z,66.02
2018-09-13T21:05:22.993Z,65.43
2018-09-13T21:07:50.003Z,65.91
2018-09-13T21:10:18.417Z,65.61
2018-09-13T21:12:45.494Z,66.04
2018-09-13T21:15:12.511Z,65.79
2018-09-13T21:17:39.516Z,65.71
2018-09-13T21:20:06.509Z,65.21
2018-09-13T21:22:33.463Z,66.00
2018-09-13T21:25:00.462Z,65.97
2018-09-13T21:27:27.433Z,66.04
2018-09-13T21:29:54.491Z,65.45
2018-09-13T21:32:21.434Z,65.87
2018-09-13T21:34:48.379Z,65.28
2018-09-13T21:37:15.352Z,66.09
2018-09-13T21:39:42.314Z,65.50
2018-09-13T21:42:09.305Z,65.85
2018-09-13T21:44:36.239Z,65.81
2018-09-13T21:47:03.235Z,65.43
2018-09-13T21:49:30.193Z,66.01
2018-09-13T21:51:57.133Z,65.21
2018-09-13T21:54:24.082Z,65.14
2018-09-13T21:56:51.060Z,65.84
2018-09-13T21:59:18.007Z,65.38
2018-09-13T22:01:44.965Z,65.98
2018-09-13T22:04:11.980Z,65.93
2018-09-13T22:06:38.948Z,65.65
2018-09-13T22:09:08.523Z,65.93
2018-09-13T22:11:35.928Z,65.81
2018-09-13T22:14:02.963Z,65.37
2018-09-13T22:16:30.037Z,65.57
2018-09-13T22:18:57.245Z,65.82
2018-09-13T22:21:24.419Z,65.09
2018-09-13T22:23:51.476Z,65.88
2018-09-13T22:26:18.582Z,65.25
2018-09-13T22:28:45.569Z,65.26
2018-09-13T22:31:12.561Z,65.73
2018-09-13T22:33:40.632Z,66.05
2018-09-13T22:36:07.631Z,65.54
2018-09-13T22:43:18.928Z,65.40
2018-09-13T22:45:45.873Z,64.99
2018-09-13T22:48:12.841Z,65.26
2018-09-13T22:50:39.918Z,65.81
2018-09-13T22:53:06.880Z,65.08
2018-09-13T22:55:33.853Z,65.96
2018-09-13T22:58:00.830Z,65.74
2018-09-13T23:00:27.771Z,65.37
2018-09-13T23:02:54.692Z,65.23
2018-09-13T23:05:21.657Z,65.98
2018-09-13T23:07:48.626Z,65.15
2018-09-13T23:10:16.121Z,65.81
2018-09-13T23:12:43.095Z,65.31
2018-09-13T23:15:10.058Z,65.25
2018-09-13T23:17:37.040Z,65.84
2018-09-13T23:20:04.045Z,65.07
2018-09-13T23:22:30.986Z,65.89
2018-09-13T23:24:57.932Z,65.49
2018-09-13T23:27:24.887Z,65.97
2018-09-13T23:29:51.880Z,65.87
2018-09-13T23:32:18.822Z,65.47
2018-09-13T23:34:45.765Z,65.20
2018-09-13T23:37:12.724Z,65.64
2018-09-13T23:39:39.949Z,65.32
2018-09-13T23:42:06.693Z,65.09
2018-09-13T23:44:33.664Z,65.33
2018-09-13T23:47:00.657Z,65.25
2018-09-13T23:49:27.669Z,65.87
2018-09-13T23:51:54.586Z,65.31
2018-09-13T23:56:48.110Z,65.69
2018-09-13T23:59:15.066Z,65.88
